createdAt,value
2022-08-08T00:02:30.576Z,25.11
2022-08-08T00:04:53.114Z,25.48
2022-08-08T00:07:30.297Z,25.11
2022-08-08T00:10:06.354Z,25.01
2022-08-08T00:12:40.007Z,24.67
2022-08-08T00:15:13.115Z,25.29
2022-08-08T00:18:03.604Z,25.15
2022-08-08T00:20:37.123Z,25.18
2022-08-08T00:23:09.217Z,24.89
2022-08-08T00:25:46.353Z,25.20
2022-08-08T00:28:35.497Z,24.87
2022-08-08T00:32:20.362Z,25.27
2022-08-08T00:34:47.225Z,25.05
2022-08-08T00:37:47.073Z,25.16
2022-08-08T00:41:10.699Z,25.09
2022-08-08T00:43:59.074Z,25.32
2022-08-08T00:46:59.652Z,25.15
2022-08-08T00:50:12.959Z,25.01
2022-08-08T00:52:51.486Z,25.33
2022-08-08T00:55:36.275Z,24.99
2022-08-08T00:59:06.917Z,25.10
2022-08-08T01:01:40.087Z,24.90
2022-08-08T01:05:29.196Z,24.95
2022-08-08T01:08:28.648Z,24.66
2022-08-08T01:11:44.763Z,25.19
2022-08-08T01:15:37.303Z,24.65
2022-08-08T01:18:53.208Z,24.78
2022-08-08T01:22:12.993Z,24.83
2022-08-08T01:25:09.522Z,25.26
2022-08-08T01:28:07.997Z,24.82
2022-08-08T01:32:05.550Z,24.94
2022-08-08T01:34:28.809Z,25.00
2022-08-08T01:37:56.566Z,24.90
2022-08-08T01:40:45.426Z,24.40
2022-08-08T01:43:34.610Z,24.96
2022-08-08T01:46:31.230Z,24.92
2022-08-08T01:49:06.259Z,24.80
2022-08-08T01:52:33.618Z,25.04
2022-08-08T01:55:44.918Z,24.46
2022-08-08T01:58:11.034Z,24.15
2022-08-08T02:00:48.558Z,24.43
2022-08-08T02:03:56.772Z,24.54
2022-08-08T02:06:31.567Z,24.53
2022-08-08T02:09:15.983Z,24.43
2022-08-08T02:11:53.101Z,24.76
2022-08-08T02:14:55.345Z,24.26
2022-08-08T02:17:36.401Z,24.44
2022-08-08T02:20:16.176Z,24.64
2022-08-08T02:23:16.409Z,24.52
2022-08-08T02:25:53.130Z,24.80
2022-08-08T02:28:35.340Z,24.83
2022-08-08T02:31:58.909Z,24.69
2022-08-08T02:34:32.794Z,24.19
2022-08-08T02:37:51.297Z,24.42
2022-08-08T02:40:05.772Z,24.20
2022-08-08T02:44:39.318Z,24.57
2022-08-08T02:46:53.126Z,24.46
2022-08-08T02:50:18.054Z,24.44
2022-08-08T02:53:18.888Z,24.43
2022-08-08T02:56:09.776Z,24.59
2022-08-08T02:59:37.375Z,24.51
2022-08-08T03:02:53.248Z,24.63
2022-08-08T03:06:07.355Z,23.99
2022-08-08T03:09:08.566Z,24.19
2022-08-08T03:12:14.161Z,24.41
2022-08-08T03:15:57.188Z,24.29
2022-08-08T03:17:59.945Z,24.44
2022-08-08T03:20:51.374Z,24.47
2022-08-08T03:23:54.792Z,24.31
2022-08-08T03:26:23.936Z,24.58
2022-08-08T03:28:56.721Z,24.64
2022-08-08T03:32:05.905Z,24.13
2022-08-08T03:34:31.337Z,23.82
2022-08-08T03:37:00.148Z,23.55
2022-08-08T03:39:30.631Z,23.94
2022-08-08T03:42:27.824Z,24.27
2022-08-08T03:44:58.505Z,24.54
2022-08-08T03:47:45.239Z,24.72
2022-08-08T03:50:19.939Z,24.63
2022-08-08T03:52:49.832Z,24.60
2022-08-08T03:55:57.485Z,24.59
2022-08-08T03:58:35.723Z,24.50
2022-08-08T04:01:24.323Z,24.53
2022-08-08T04:03:57.342Z,24.53
2022-08-08T04:06:30.521Z,24.59
2022-08-08T04:09:10.419Z,24.37
2022-08-08T04:11:58.248Z,24.57
2022-08-08T04:14:36.122Z,24.47
2022-08-08T04:17:22.836Z,24.56
2022-08-08T04:19:57.379Z,24.55
2022-08-08T04:22:29.605Z,24.38
2022-08-08T04:24:59.289Z,24.67
2022-08-08T04:28:02.599Z,24.94
2022-08-08T04:30:19.638Z,24.97
2022-08-08T04:32:53.137Z,25.04
2022-08-08T04:35:24.401Z,24.95
2022-08-08T04:37:54.770Z,25.00
2022-08-08T04:40:36.437Z,24.94
2022-08-08T04:43:08.900Z,24.97
2022-08-08T04:45:44.203Z,25.31
2022-08-08T04:48:15.724Z,25.28
2022-08-08T04:50:46.214Z,25.19
2022-08-08T04:54:26.737Z,25.19
2022-08-08T04:56:12.269Z,25.17
2022-08-08T04:58:43.293Z,24.99
2022-08-08T05:01:15.188Z,25.14
2022-08-08T05:04:11.520Z,24.90
2022-08-08T05:06:41.745Z,24.92
2022-08-08T05:09:12.416Z,24.82
2022-08-08T05:11:47.586Z,24.98
2022-08-08T05:14:20.696Z,25.33
2022-08-08T05:17:00.568Z,25.30
2022-08-08T05:20:10.912Z,25.37
2022-08-08T05:22:29.656Z,25.29
2022-08-08T05:25:00.065Z,25.59
2022-08-08T05:27:33.468Z,25.33
2022-08-08T05:30:04.829Z,25.74
2022-08-08T05:32:44.031Z,25.19
2022-08-08T05:35:16.117Z,25.54
2022-08-08T05:37:52.633Z,25.21
2022-08-08T05:40:28.234Z,25.76
2022-08-08T05:43:38.534Z,25.25
2022-08-08T05:46:03.395Z,25.77
2022-08-08T05:48:36.229Z,25.67
2022-08-08T05:51:14.897Z,24.96
2022-08-08T05:54:26.177Z,25.36
2022-08-08T05:56:42.277Z,25.36
2022-08-08T05:59:59.729Z,24.80
2022-08-08T06:02:38.550Z,24.94
2022-08-08T06:05:34.349Z,25.45
2022-08-08T06:08:02.030Z,25.02
2022-08-08T06:10:34.627Z,24.82
2022-08-08T06:13:04.447Z,25.49
2022-08-08T06:15:51.375Z,24.72
2022-08-08T06:18:30.211Z,24.99
2022-08-08T06:21:03.596Z,24.93
2022-08-08T06:24:01.962Z,25.50
2022-08-08T06:26:43.418Z,25.87
2022-08-08T06:29:49.425Z,26.17
2022-08-08T06:32:10.129Z,26.27
2022-08-08T06:35:02.872Z,25.77
2022-08-08T06:37:39.653Z,25.83
2022-08-08T06:40:16.231Z,25.44
2022-08-08T06:42:54.099Z,26.01
2022-08-08T06:45:26.558Z,26.29
2022-08-08T06:48:00.607Z,26.79
2022-08-08T06:50:38.337Z,27.04
2022-08-08T06:53:17.089Z,26.02
2022-08-08T06:56:02.445Z,26.10
2022-08-08T06:58:37.065Z,26.43
2022-08-08T07:01:24.542Z,25.97
2022-08-08T07:04:36.996Z,25.61
2022-08-08T07:06:58.224Z,25.44
2022-08-08T07:09:45.444Z,26.60
2022-08-08T07:12:30.585Z,26.10
2022-08-08T07:15:05.557Z,26.53
2022-08-08T07:18:00.686Z,26.38
2022-08-08T07:20:29.182Z,26.49
2022-08-08T07:23:04.736Z,26.76
2022-08-08T07:25:39.788Z,26.83
2022-08-08T07:28:24.126Z,26.87
2022-08-08T07:31:05.120Z,26.65
2022-08-08T07:33:38.186Z,26.92
2022-08-08T07:36:23.731Z,26.70
2022-08-08T07:38:54.805Z,26.43
2022-08-08T07:41:25.421Z,26.24
2022-08-08T07:43:59.023Z,26.88
2022-08-08T07:46:30.340Z,26.99
2022-08-08T07:49:05.408Z,26.69
2022-08-08T07:51:44.356Z,27.25
2022-08-08T07:54:31.284Z,27.87
2022-08-08T07:57:10.991Z,28.15
2022-08-08T07:59:48.664Z,27.93
2022-08-08T08:02:35.490Z,28.33
2022-08-08T08:05:15.134Z,28.22
2022-08-08T08:07:53.158Z,26.97
2022-08-08T08:10:33.367Z,26.81
2022-08-08T08:13:25.999Z,27.61
2022-08-08T08:16:17.346Z,28.04
2022-08-08T08:18:55.674Z,28.64
2022-08-08T08:21:44.730Z,28.93
2022-08-08T08:24:30.856Z,28.31
2022-08-08T08:27:03.762Z,29.22
2022-08-08T08:29:35.656Z,28.82
2022-08-08T08:32:06.089Z,28.81
2022-08-08T08:34:37.573Z,28.95
2022-08-08T08:37:15.661Z,28.45
2022-08-08T08:40:01.601Z,29.04
2022-08-08T08:42:38.009Z,29.54
2022-08-08T08:45:23.352Z,29.64
2022-08-08T08:48:02.330Z,29.02
2022-08-08T08:50:36.694Z,29.10
2022-08-08T08:53:53.932Z,29.33
2022-08-08T08:56:12.035Z,29.19
2022-08-08T08:58:46.907Z,28.53
2022-08-08T09:01:29.081Z,28.36
2022-08-08T09:04:02.279Z,28.82
2022-08-08T09:06:40.534Z,29.17
2022-08-08T09:09:35.585Z,28.76
2022-08-08T09:12:19.817Z,28.65
2022-08-08T09:14:51.568Z,28.54
2022-08-08T09:17:41.224Z,28.22
2022-08-08T09:21:59.116Z,28.80
2022-08-08T09:23:05.495Z,29.07
2022-08-08T09:25:54.553Z,28.93
2022-08-08T09:28:38.402Z,29.13
2022-08-08T09:31:16.472Z,28.77
2022-08-08T09:34:15.823Z,29.38
2022-08-08T09:37:10.246Z,29.97
2022-08-08T09:39:42.985Z,30.27
2022-08-08T09:42:20.316Z,29.77
2022-08-08T09:45:03.915Z,29.86
2022-08-08T09:48:09.458Z,30.30
2022-08-08T09:50:28.060Z,29.98
2022-08-08T09:53:01.301Z,30.20
2022-08-08T09:56:03.218Z,31.23
2022-08-08T09:58:27.600Z,30.92
2022-08-08T10:01:03.563Z,30.68
2022-08-08T10:03:56.249Z,30.81
2022-08-08T10:06:26.690Z,31.61
2022-08-08T10:08:57.955Z,31.07
2022-08-08T10:12:26.403Z,30.89
2022-08-08T10:14:27.979Z,30.06
2022-08-08T10:17:38.514Z,30.88
2022-08-08T10:19:59.925Z,30.38
2022-08-08T10:22:29.967Z,30.54
2022-08-08T10:25:04.841Z,30.64
2022-08-08T10:27:42.646Z,30.04
2022-08-08T10:30:16.811Z,29.96
2022-08-08T10:33:01.379Z,30.45
2022-08-08T10:36:08.539Z,30.78
2022-08-08T10:38:21.536Z,30.64
2022-08-08T10:40:53.298Z,29.92
2022-08-08T10:43:23.082Z,30.05
2022-08-08T10:45:56.138Z,29.99
2022-08-08T10:48:37.261Z,30.32
2022-08-08T10:51:14.596Z,31.52
2022-08-08T10:53:56.665Z,31.35
2022-08-08T10:56:34.658Z,31.00
2022-08-08T10:59:08.135Z,32.00
2022-08-08T11:01:38.601Z,31.79
2022-08-08T11:04:10.585Z,31.25
2022-08-08T11:06:47.402Z,30.96
2022-08-08T11:09:21.211Z,30.86
2022-08-08T11:12:06.287Z,31.06
2022-08-08T11:14:51.325Z,31.05
2022-08-08T11:17:58.621Z,32.01
2022-08-08T11:20:13.498Z,31.65
2022-08-08T11:22:43.547Z,31.36
2022-08-08T11:25:14.880Z,30.37
2022-08-08T11:27:48.997Z,29.96
2022-08-08T11:30:19.810Z,30.59
2022-08-08T11:32:50.510Z,31.26
2022-08-08T11:35:37.556Z,30.72
2022-08-08T11:38:39.189Z,30.33
2022-08-08T11:41:02.491Z,30.90
2022-08-08T11:43:39.431Z,30.99
2022-08-08T11:46:13.766Z,31.20
2022-08-08T11:48:47.639Z,31.04
2022-08-08T11:51:29.606Z,31.49
2022-08-08T11:54:04.647Z,31.84
2022-08-08T11:56:34.512Z,31.06
2022-08-08T11:59:10.241Z,31.52
2022-08-08T12:01:39.234Z,31.84
2022-08-08T12:04:10.301Z,32.09
2022-08-08T12:06:40.639Z,32.30
2022-08-08T12:09:17.168Z,31.95
2022-08-08T12:11:49.522Z,31.57
2022-08-08T12:14:24.051Z,31.11
2022-08-08T12:16:58.041Z,30.55
2022-08-08T12:19:31.160Z,30.46
2022-08-08T12:22:13.239Z,30.78
2022-08-08T12:24:54.282Z,30.86
2022-08-08T12:27:26.451Z,30.84
2022-08-08T12:29:57.234Z,30.11
2022-08-08T12:32:26.008Z,30.48
2022-08-08T12:35:13.697Z,30.67
2022-08-08T12:38:01.373Z,31.53
2022-08-08T12:40:54.270Z,31.91
2022-08-08T12:43:32.620Z,32.24
2022-08-08T12:46:19.152Z,32.26
2022-08-08T12:49:22.098Z,31.85
2022-08-08T12:51:50.123Z,31.66
2022-08-08T12:54:24.507Z,31.64
2022-08-08T12:56:55.449Z,31.60
2022-08-08T12:59:27.408Z,31.59
2022-08-08T13:02:27.994Z,31.68
2022-08-08T13:04:58.477Z,31.53
2022-08-08T13:08:01.972Z,31.57
2022-08-08T13:10:32.765Z,31.27
2022-08-08T13:13:06.177Z,30.61
2022-08-08T13:15:37.123Z,30.96
2022-08-08T13:18:10.926Z,31.06
2022-08-08T13:20:45.888Z,31.19
2022-08-08T13:23:36.743Z,30.91
2022-08-08T13:26:15.628Z,30.91
2022-08-08T13:28:48.978Z,30.68
2022-08-08T13:31:17.853Z,31.21
2022-08-08T13:33:49.735Z,31.23
2022-08-08T13:36:26.204Z,31.22
2022-08-08T13:38:59.347Z,31.39
2022-08-08T13:41:39.614Z,31.18
2022-08-08T13:44:19.525Z,31.34
2022-08-08T13:46:55.803Z,31.65
2022-08-08T13:50:35.591Z,31.35
2022-08-08T13:52:14.180Z,31.23
2022-08-08T13:55:04.447Z,31.20
2022-08-08T13:57:46.369Z,31.30
2022-08-08T14:00:25.154Z,31.45
2022-08-08T14:02:59.292Z,31.66
2022-08-08T14:05:29.022Z,31.65
2022-08-08T14:08:16.897Z,31.20
2022-08-08T14:10:56.239Z,30.87
2022-08-08T14:13:33.590Z,30.74
2022-08-08T14:16:07.759Z,30.73
2022-08-08T14:18:53.965Z,30.86
2022-08-08T14:21:24.717Z,30.76
2022-08-08T14:24:06.679Z,30.94
2022-08-08T14:26:41.696Z,30.75
2022-08-08T14:29:28.849Z,30.55
2022-08-08T14:32:10.937Z,30.71
2022-08-08T14:34:42.766Z,30.71
2022-08-08T14:37:13.001Z,30.65
2022-08-08T14:39:49.490Z,30.31
2022-08-08T14:42:26.972Z,29.92
2022-08-08T14:44:57.970Z,30.10
2022-08-08T14:47:36.207Z,30.15
2022-08-08T14:50:14.038Z,29.74
2022-08-08T14:52:54.137Z,29.73
2022-08-08T14:55:35.187Z,29.76
2022-08-08T14:58:11.803Z,30.05
2022-08-08T15:00:44.847Z,29.95
2022-08-08T15:03:17.104Z,29.92
2022-08-08T15:05:53.937Z,29.81
2022-08-08T15:08:34.880Z,30.00
2022-08-08T15:11:09.444Z,29.78
2022-08-08T15:14:01.920Z,30.09
2022-08-08T15:16:34.490Z,30.05
2022-08-08T15:19:05.431Z,29.91
2022-08-08T15:21:42.450Z,29.68
2022-08-08T15:24:12.834Z,30.07
2022-08-08T15:26:46.822Z,30.13
2022-08-08T15:29:22.339Z,29.82
2022-08-08T15:32:03.599Z,29.76
2022-08-08T15:34:42.256Z,29.68
2022-08-08T15:37:12.882Z,29.89
2022-08-08T15:39:41.611Z,29.92
2022-08-08T15:42:17.857Z,29.73
2022-08-08T15:44:59.051Z,29.59
2022-08-08T15:47:27.250Z,29.45
2022-08-08T15:49:57.024Z,29.60
2022-08-08T15:52:25.334Z,29.32
2022-08-08T15:54:54.012Z,29.31
2022-08-08T15:57:23.210Z,29.63
2022-08-08T16:00:06.807Z,29.46
2022-08-08T16:02:50.191Z,29.43
2022-08-08T16:05:23.746Z,29.21
2022-08-08T16:07:54.229Z,29.05
2022-08-08T16:13:03.740Z,28.67
2022-08-08T16:13:43.262Z,28.95
2022-08-08T16:16:09.068Z,29.13
2022-08-08T16:18:41.132Z,28.78
2022-08-08T16:21:26.198Z,28.90
2022-08-08T16:23:55.520Z,28.78
2022-08-08T16:26:34.391Z,28.58
2022-08-08T16:29:09.515Z,28.68
2022-08-08T16:31:48.608Z,27.79
2022-08-08T16:34:20.015Z,28.14
2022-08-08T16:36:50.958Z,28.30
2022-08-08T16:40:00.759Z,28.33
2022-08-08T16:42:17.878Z,28.20
2022-08-08T16:44:54.678Z,28.03
2022-08-08T16:47:40.410Z,28.49
2022-08-08T16:50:14.025Z,28.05
2022-08-08T16:55:04.699Z,28.30
2022-08-08T16:55:53.670Z,28.27
2022-08-08T16:58:25.380Z,28.27
2022-08-08T17:00:57.895Z,28.53
2022-08-08T17:03:58.000Z,28.24
2022-08-08T17:06:35.657Z,28.13
2022-08-08T17:09:05.348Z,28.58
2022-08-08T17:11:39.163Z,28.44
2022-08-08T17:14:19.312Z,28.54
2022-08-08T17:16:51.738Z,28.39
2022-08-08T17:19:27.345Z,28.24
2022-08-08T17:21:55.783Z,28.13
2022-08-08T17:24:27.971Z,27.98
2022-08-08T17:26:59.380Z,27.62
2022-08-08T17:29:27.999Z,27.14
2022-08-08T17:31:57.459Z,27.36
2022-08-08T17:34:36.902Z,27.29
2022-08-08T17:37:14.751Z,27.22
2022-08-08T17:40:04.568Z,27.17
2022-08-08T17:42:32.709Z,26.62
2022-08-08T17:45:01.415Z,27.04
2022-08-08T17:47:40.490Z,27.18
2022-08-08T17:50:10.942Z,27.15
2022-08-08T17:52:43.378Z,27.03
2022-08-08T17:56:05.736Z,27.05
2022-08-08T17:58:05.600Z,27.05
2022-08-08T18:00:39.102Z,26.72
2022-08-08T18:03:13.316Z,26.93
2022-08-08T18:05:48.012Z,25.91
2022-08-08T18:08:37.551Z,26.18
2022-08-08T18:11:15.135Z,26.09
2022-08-08T18:13:46.044Z,26.36
2022-08-08T18:16:20.322Z,26.26
2022-08-08T18:18:52.670Z,25.60
2022-08-08T18:21:24.874Z,26.10
2022-08-08T18:24:03.830Z,25.44
2022-08-08T18:26:34.683Z,25.92
2022-08-08T18:29:03.085Z,25.95
2022-08-08T18:31:34.238Z,26.02
2022-08-08T18:34:25.220Z,25.99
2022-08-08T18:36:55.738Z,26.02
2022-08-08T18:39:28.188Z,26.03
2022-08-08T18:42:03.363Z,25.55
2022-08-08T18:44:35.875Z,25.84
2022-08-08T18:47:05.509Z,25.26
2022-08-08T18:49:40.891Z,25.11
2022-08-08T18:52:23.833Z,25.48
2022-08-08T18:55:00.883Z,25.31
2022-08-08T18:57:43.333Z,25.00
2022-08-08T19:00:16.692Z,25.36
2022-08-08T19:02:55.592Z,25.26
2022-08-08T19:05:32.144Z,25.50
2022-08-08T19:08:25.714Z,25.49
2022-08-08T19:10:58.396Z,25.72
2022-08-08T19:13:53.048Z,25.79
2022-08-08T19:16:19.246Z,26.06
2022-08-08T19:18:53.139Z,25.91
2022-08-08T19:21:30.655Z,25.76
2022-08-08T19:24:05.845Z,26.05
2022-08-08T19:26:35.656Z,25.65
2022-08-08T19:29:07.975Z,25.54
2022-08-08T19:31:36.679Z,25.37
2022-08-08T19:34:35.676Z,25.45
2022-08-08T19:36:55.355Z,24.80
2022-08-08T19:39:26.708Z,25.47
2022-08-08T19:42:03.726Z,25.27
2022-08-08T19:44:45.494Z,25.43
2022-08-08T19:47:15.772Z,25.55
2022-08-08T19:49:59.880Z,25.63
2022-08-08T19:52:35.418Z,25.55
2022-08-08T19:55:11.287Z,25.92
2022-08-08T19:57:41.213Z,26.01
2022-08-08T20:00:30.476Z,25.29
2022-08-08T20:03:01.883Z,25.50
2022-08-08T20:06:15.656Z,25.54
2022-08-08T20:08:32.444Z,25.39
2022-08-08T20:11:01.272Z,25.55
2022-08-08T20:14:32.760Z,25.48
2022-08-08T20:16:20.492Z,25.01
2022-08-08T20:18:52.467Z,25.17
2022-08-08T20:21:23.078Z,25.20
2022-08-08T20:23:57.616Z,25.16
2022-08-08T20:26:30.109Z,25.36
2022-08-08T20:29:02.159Z,25.13
2022-08-08T20:31:47.215Z,25.15
2022-08-08T20:34:28.795Z,25.23
2022-08-08T20:37:00.472Z,25.28
2022-08-08T20:39:39.412Z,25.20
2022-08-08T20:42:17.912Z,24.85
2022-08-08T20:44:48.724Z,25.10
2022-08-08T20:47:23.567Z,25.44
2022-08-08T20:49:54.373Z,24.92
2022-08-08T20:52:26.003Z,25.41
2022-08-08T20:54:54.422Z,25.26
2022-08-08T20:57:22.761Z,24.59
2022-08-08T20:59:56.017Z,24.78
2022-08-08T21:02:27.021Z,24.70
2022-08-08T21:05:01.102Z,24.50
2022-08-08T21:07:47.069Z,24.50
2022-08-08T21:10:20.998Z,25.01
2022-08-08T21:12:52.881Z,24.48
2022-08-08T21:16:04.797Z,24.71
2022-08-08T21:18:14.081Z,24.87
2022-08-08T21:20:42.999Z,23.89
2022-08-08T21:23:19.486Z,23.90
2022-08-08T21:25:55.045Z,24.13
2022-08-08T21:28:36.036Z,24.25
2022-08-08T21:31:21.673Z,24.16
2022-08-08T21:33:53.271Z,24.29
2022-08-08T21:36:28.578Z,24.50
2022-08-08T21:38:57.966Z,24.30
2022-08-08T21:41:38.392Z,24.02
2022-08-08T21:44:15.284Z,24.17
2022-08-08T21:48:05.837Z,23.81
2022-08-08T21:49:35.410Z,23.97
2022-08-08T21:54:36.673Z,24.31
2022-08-08T21:55:02.779Z,23.86
2022-08-08T21:57:42.747Z,23.94
2022-08-08T22:00:14.183Z,24.25
2022-08-08T22:02:44.181Z,24.07
2022-08-08T22:05:15.199Z,24.42
2022-08-08T22:07:47.437Z,23.73
2022-08-08T22:10:18.622Z,23.90
2022-08-08T22:13:17.182Z,24.00
2022-08-08T22:15:58.931Z,23.42
2022-08-08T22:18:29.870Z,23.68
2022-08-08T22:21:01.501Z,23.35
2022-08-08T22:23:41.127Z,23.67
2022-08-08T22:26:29.797Z,23.03
2022-08-08T22:29:13.589Z,22.92
2022-08-08T22:32:01.476Z,23.51
2022-08-08T22:34:32.755Z,23.85
2022-08-08T22:37:03.269Z,23.35
2022-08-08T22:39:39.611Z,23.66
2022-08-08T22:42:23.959Z,22.65
2022-08-08T22:44:56.533Z,23.06
2022-08-08T22:47:34.002Z,23.00
2022-08-08T22:50:09.711Z,23.04
2022-08-08T22:54:28.094Z,22.57
2022-08-08T22:55:58.934Z,22.51
2022-08-08T22:58:30.881Z,22.95
2022-08-08T23:01:00.663Z,22.96
2022-08-08T23:03:36.546Z,23.13
2022-08-08T23:06:17.743Z,23.68
2022-08-08T23:08:55.835Z,23.17
2022-08-08T23:11:30.766Z,22.78
2022-08-08T23:14:17.854Z,22.81
2022-08-08T23:16:57.551Z,22.77
2022-08-08T23:19:30.929Z,23.10
2022-08-08T23:22:04.710Z,23.31
2022-08-08T23:24:36.909Z,23.38
2022-08-08T23:27:10.653Z,23.14
2022-08-08T23:29:39.781Z,23.26
2022-08-08T23:32:10.989Z,23.29
2022-08-08T23:34:40.232Z,23.22
2022-08-08T23:37:26.582Z,23.19
2022-08-08T23:40:16.906Z,22.65
2022-08-08T23:42:51.357Z,23.05
2022-08-08T23:49:03.337Z,22.40
2022-08-08T23:49:05.807Z,22.80
2022-08-08T23:50:57.692Z,22.42
2022-08-08T23:53:55.961Z,22.51
2022-08-08T23:56:24.164Z,22.65
2022-08-08T23:59:00.881Z,22.44
